Time;durP1;ratioP1;P1;durP2;ratioP2;P2;SDS_P1;SDS_P2;PMS_P1;PMS_P2;Temp;Humidity;BMP_temperature;BMP_pressure;BME280_temperature;BME280_humidity;BME280_pressure;Samples;Min_cycle;Max_cycle;Signal;HPM_P1;HPM_P2
2023/03/22 00:00:55;;;;;;;;;7.25;7.25;;;;;14.58;63.83;100675.97;2104264;28;46488;-66
2023/03/22 00:01:55;;;;;;;;;4.00;4.00;;;;;14.56;64.29;100673.38;2104279;28;46781;-65
2023/03/22 00:02:56;;;;;;;;;8.00;7.33;;;;;14.56;64.04;100684.03;2098936;28;46611;-66
2023/03/22 00:03:56;;;;;;;;;6.33;6.33;;;;;14.55;63.93;100678.78;2095891;28;46342;-66
2023/03/22 00:04:57;;;;;;;;;7.67;7.00;;;;;14.54;64.27;100685.03;2095310;28;46353;-65
2023/03/22 00:05:57;;;;;;;;;7.33;7.00;;;;;14.53;64.09;100678.84;2083993;28;46279;-64
2023/03/22 00:06:57;;;;;;;;;5.00;5.00;;;;;14.52;64.16;100676.22;2086575;28;46769;-64
2023/03/22 00:07:58;;;;;;;;;9.00;8.00;;;;;14.52;63.96;100681.56;2102242;28;46318;-65
2023/03/22 00:08:58;;;;;;;;;6.33;5.67;;;;;14.52;64.55;100678.91;2103520;28;46668;-65
2023/03/22 00:09:59;;;;;;;;;6.00;6.00;;;;;14.51;64.25;100669.16;2104724;28;46595;-66
2023/03/22 00:11:00;;;;;;;;;8.00;6.67;;;;;14.51;64.21;100674.50;2104416;28;46775;-65
2023/03/22 00:12:00;;;;;;;;;5.00;5.00;;;;;14.48;64.21;100667.44;2095310;28;47318;-67
2023/03/22 00:13:01;;;;;;;;;7.33;6.33;;;;;14.47;64.59;100679.06;2095297;28;46756;-67
2023/03/22 00:14:01;;;;;;;;;5.33;4.33;;;;;14.45;64.20;100661.34;2103962;28;46787;-65
2023/03/22 00:15:01;;;;;;;;;7.00;7.00;;;;;14.45;64.59;100664.91;2101336;28;46397;-65
2023/03/22 00:16:03;;;;;;;;;7.33;7.33;;;;;14.42;64.34;100663.19;2102682;28;46496;-65
2023/03/22 00:17:04;;;;;;;;;6.25;6.25;;;;;14.42;64.29;100664.97;2105436;27;46393;-66
2023/03/22 00:18:04;;;;;;;;;9.00;9.00;;;;;14.41;64.58;100665.91;2108575;27;46377;-65
2023/03/22 00:19:05;;;;;;;;;8.00;8.00;;;;;14.40;64.30;100653.50;2108831;27;47083;-65
2023/03/22 00:20:06;;;;;;;;;5.67;5.67;;;;;14.39;64.45;100660.63;2105866;27;46126;-64
2023/03/22 00:21:13;;;;;;;;;0.75;0.75;;;;;14.39;64.45;100655.31;2087606;28;46387;-64
2023/03/22 00:22:15;;;;;;;;;5.00;5.00;;;;;14.37;64.27;100651.81;2096852;27;46290;-65
2023/03/22 00:23:15;;;;;;;;;4.75;4.75;;;;;14.35;64.47;100656.31;2103927;28;46533;-66
2023/03/22 00:24:15;;;;;;;;;6.00;5.33;;;;;14.33;64.11;100655.53;2096759;28;46312;-65
2023/03/22 00:25:16;;;;;;;;;6.00;6.00;;;;;14.33;64.58;100660.84;2103120;27;46187;-66
2023/03/22 00:26:17;;;;;;;;;5.80;5.20;;;;;14.31;64.62;100665.38;2104117;28;46883;-64
2023/03/22 00:27:17;;;;;;;;;5.00;5.00;;;;;14.29;64.34;100651.22;2108019;27;46255;-66
2023/03/22 00:28:18;;;;;;;;;8.00;6.33;;;;;14.28;64.56;100654.84;2111135;27;46065;-65
2023/03/22 00:29:21;;;;;;;;;4.00;4.00;;;;;14.28;64.39;100652.16;2092158;28;45993;-64
2023/03/22 00:30:21;;;;;;;;;5.00;5.00;;;;;14.29;64.69;100653.03;2089590;28;45515;-65
2023/03/22 00:31:22;;;;;;;;;6.67;5.67;;;;;14.29;64.43;100647.69;2097018;28;46072;-65
2023/03/22 00:32:22;;;;;;;;;5.00;5.00;;;;;14.29;64.37;100647.69;2105180;27;46479;-66
2023/03/22 00:33:23;;;;;;;;;7.00;7.00;;;;;14.27;64.38;100645.09;2103960;27;46751;-65
2023/03/22 00:34:23;;;;;;;;;4.00;4.00;;;;;14.27;64.65;100642.41;2097242;27;46681;-65
2023/03/22 00:35:24;;;;;;;;;4.00;4.00;;;;;14.27;64.28;100645.09;2107577;27;46648;-65
2023/03/22 00:36:24;;;;;;;;;8.33;7.00;;;;;14.27;64.60;100650.44;2111008;27;46155;-65
2023/03/22 00:37:26;;;;;;;;;5.00;5.00;;;;;14.26;64.33;100643.34;2102517;28;45776;-65
2023/03/22 00:38:37;;;;;;;;;5.50;5.50;;;;;14.25;63.84;100638.94;2100345;27;46497;-65
2023/03/22 00:39:38;;;;;;;;;6.00;6.00;;;;;14.24;64.39;100639.88;2110926;27;46922;-64
2023/03/22 00:40:39;;;;;;;;;5.33;4.00;;;;;14.22;63.84;100631.03;2101982;28;46258;-66
2023/03/22 00:41:39;;;;;;;;;4.50;4.50;;;;;14.21;64.27;100623.94;2100026;27;46202;-64
2023/03/22 00:42:40;;;;;;;;;3.33;3.33;;;;;14.18;63.85;100632.09;2114284;27;46879;-66
2023/03/22 00:43:41;;;;;;;;;7.75;7.25;;;;;14.16;63.89;100633.94;2102316;28;46397;-65
2023/03/22 00:44:41;;;;;;;;;5.75;5.75;;;;;14.12;64.17;100635.88;2100595;28;46526;-63
2023/03/22 00:45:42;;;;;;;;;4.33;4.33;;;;;14.12;64.10;100633.19;2097385;28;46747;-67
2023/03/22 00:46:42;;;;;;;;;5.00;5.00;;;;;14.11;64.01;100625.25;2101477;27;45760;-64
2023/03/22 00:47:42;;;;;;;;;8.33;7.00;;;;;14.10;63.99;100628.81;2105362;28;46388;-65
2023/03/22 00:48:43;;;;;;;;;9.67;8.67;;;;;14.10;64.26;100626.16;2104876;27;46158;-66
2023/03/22 00:49:44;;;;;;;;;8.00;6.33;;;;;14.09;64.09;100627.94;2105532;27;46584;-64
2023/03/22 00:50:44;;;;;;;;;7.00;5.00;;;;;14.09;64.40;100624.41;2101119;28;45471;-64
2023/03/22 00:51:45;;;;;;;;;6.33;6.33;;;;;14.08;64.36;100623.53;2105221;27;46791;-65
2023/03/22 00:52:45;;;;;;;;;6.67;6.67;;;;;14.08;64.27;100625.34;2105541;27;44969;-66
2023/03/22 00:53:48;;;;;;;;;5.67;4.67;;;;;14.07;64.16;100623.59;2105781;28;46033;-64
2023/03/22 00:54:49;;;;;;;;;4.25;3.50;;;;;14.05;64.07;100626.34;2096437;28;46339;-65
2023/03/22 00:55:49;;;;;;;;;6.67;6.67;;;;;14.04;64.04;100627.25;2096718;28;46961;-65
2023/03/22 00:56:49;;;;;;;;;12.75;10.50;;;;;14.02;63.70;100626.47;2105748;27;46994;-65
2023/03/22 00:57:50;;;;;;;;;11.67;8.00;;;;;14.02;64.13;100628.25;2096414;28;46535;-65
2023/03/22 00:58:50;;;;;;;;;5.33;4.67;;;;;14.01;63.98;100626.53;2096074;28;46259;-65
2023/03/22 00:59:52;;;;;;;;;7.00;5.33;;;;;14.00;63.99;100631.00;2105864;27;46886;-66
2023/03/22 01:00:53;;;;;;;;;6.25;5.75;;;;;14.01;64.00;100623.84;2105926;27;46425;-65
2023/03/22 01:01:54;;;;;;;;;5.33;5.00;;;;;14.01;64.00;100623.84;2105328;27;45588;-65
2023/03/22 01:02:58;;;;;;;;;6.25;4.00;;;;;13.99;63.66;100615.91;2105869;27;46697;-64
2023/03/22 01:03:58;;;;;;;;;3.50;3.50;;;;;13.98;64.15;100610.63;2105542;28;47331;-68
2023/03/22 01:04:59;;;;;;;;;9.67;8.67;;;;;13.98;63.94;100614.16;2103138;27;46621;-64
2023/03/22 01:05:59;;;;;;;;;6.33;6.33;;;;;13.98;63.70;100613.31;2105734;27;46728;-66
2023/03/22 01:07:02;;;;;;;;;4.67;4.67;;;;;13.97;63.80;100609.72;2105529;28;45818;-64
2023/03/22 01:08:11;;;;;;;;;5.75;5.75;;;;;13.96;63.72;100610.66;2106730;27;47287;-64
2023/03/22 01:09:13;;;;;;;;;5.00;5.00;;;;;13.97;63.80;100606.19;2105384;27;46349;-64
2023/03/22 01:10:14;;;;;;;;;2.75;2.75;;;;;13.97;64.00;100606.19;2105526;28;46490;-65
2023/03/22 01:11:14;;;;;;;;;4.33;3.33;;;;;13.97;63.75;100611.53;2106824;27;46622;-64
2023/03/22 01:12:16;;;;;;;;;3.67;3.67;;;;;13.98;63.81;100611.50;2112550;27;45948;-65
2023/03/22 01:13:17;;;;;;;;;3.75;3.75;;;;;13.98;63.52;100610.63;2105908;27;46333;-64
2023/03/22 01:14:18;;;;;;;;;2.33;2.33;;;;;13.98;63.85;100613.31;2105417;27;45868;-65
2023/03/22 01:15:18;;;;;;;;;4.25;3.25;;;;;13.96;63.57;100610.66;2096286;28;46796;-66
2023/03/22 01:16:19;;;;;;;;;2.67;2.67;;;;;13.96;63.59;100607.13;2077662;28;46736;-64
2023/03/22 01:17:19;;;;;;;;;3.33;2.67;;;;;13.98;63.65;100607.97;2080144;28;45572;-65
2023/03/22 01:18:20;;;;;;;;;3.33;3.00;;;;;13.99;63.52;100607.03;2105252;28;46454;-66
2023/03/22 01:19:20;;;;;;;;;4.33;4.33;;;;;13.99;63.67;100599.03;2096711;28;46351;-64
2023/03/22 01:20:21;;;;;;;;;12.00;9.00;;;;;13.98;63.71;100602.63;2088825;28;47410;-64
2023/03/22 01:21:21;;;;;;;;;10.50;10.00;;;;;13.98;63.63;100598.16;2088021;28;46496;-65
2023/03/22 01:22:21;;;;;;;;;3.67;3.33;;;;;13.96;63.45;100599.13;2103052;27;46075;-65
2023/03/22 01:23:22;;;;;;;;;15.75;13.75;;;;;13.94;63.45;100596.50;2105371;27;46770;-65
2023/03/22 01:24:22;;;;;;;;;6.67;5.00;;;;;13.94;63.52;100591.19;2106292;27;46267;-64
2023/03/22 01:25:22;;;;;;;;;1.33;1.33;;;;;13.92;63.54;100586.84;2105852;27;46180;-64
2023/03/22 01:26:23;;;;;;;;;7.33;7.33;;;;;13.91;63.49;100590.44;2105173;28;46118;-66
2023/03/22 01:27:23;;;;;;;;;5.00;5.00;;;;;13.91;63.38;100590.44;2106196;27;47147;-64
2023/03/22 01:28:24;;;;;;;;;2.33;2.33;;;;;13.90;63.11;100586.03;2101305;27;46642;-66
2023/03/22 01:29:24;;;;;;;;;2.00;2.00;;;;;13.88;63.51;100586.09;2104973;28;46547;-65
2023/03/22 01:30:25;;;;;;;;;2.00;2.00;;;;;13.88;63.42;100582.56;2105538;27;46750;-64
2023/03/22 01:31:25;;;;;;;;;3.00;3.00;;;;;13.86;63.39;100581.75;2096778;28;46544;-65
2023/03/22 01:32:25;;;;;;;;;3.67;2.33;;;;;13.86;63.54;100576.41;2096160;28;46407;-65
2023/03/22 01:33:26;;;;;;;;;5.00;5.00;;;;;13.84;63.49;100579.09;2097835;28;46377;-66
2023/03/22 01:34:26;;;;;;;;;0.00;0.00;;;;;13.83;63.16;100575.56;2088318;28;46303;-65
2023/03/22 01:35:26;;;;;;;;;2.00;2.00;;;;;13.83;63.71;100580.03;2094286;28;46633;-65
2023/03/22 01:36:27;;;;;;;;;0.00;0.00;;;;;13.82;63.39;100572.97;2104334;27;46500;-67
2023/03/22 01:37:27;;;;;;;;;3.33;3.33;;;;;13.80;63.41;100574.81;2106495;27;45781;-65
2023/03/22 01:38:27;;;;;;;;;4.00;2.00;;;;;13.79;63.52;100579.28;2105004;27;45070;-66
2023/03/22 01:39:28;;;;;;;;;1.00;1.00;;;;;13.79;63.36;100568.63;2105276;28;46356;-65
2023/03/22 01:40:28;;;;;;;;;4.67;3.00;;;;;13.80;63.46;100575.69;2105506;27;47200;-65
2023/03/22 01:41:33;;;;;;;;;3.00;3.00;;;;;13.82;63.44;100579.16;2104942;27;46573;-64
2023/03/22 01:42:34;;;;;;;;;1.50;1.00;;;;;13.82;63.63;100563.16;2105226;28;46553;-66
2023/03/22 01:43:34;;;;;;;;;2.67;2.67;;;;;13.81;63.54;100571.22;2105422;27;46918;-65
2023/03/22 01:44:35;;;;;;;;;1.67;1.67;;;;;13.80;63.45;100564.16;2104974;27;46890;-65
2023/03/22 01:45:40;;;;;;;;;1.67;1.33;;;;;13.79;63.38;100552.63;2105156;28;45955;-64
2023/03/22 01:46:43;;;;;;;;;2.00;1.75;;;;;13.79;63.33;100551.75;2101911;27;46192;-65
2023/03/22 01:47:53;;;;;;;;;3.00;1.50;;;;;13.80;63.15;100562.34;2096326;28;46318;-65
2023/03/22 01:48:54;;;;;;;;;2.25;2.00;;;;;13.80;63.55;100553.47;2090636;28;46780;-65
2023/03/22 01:49:54;;;;;;;;;2.33;2.33;;;;;13.79;63.44;100544.63;2095697;28;46681;-65
2023/03/22 01:51:09;;;;;;;;;2.00;2.00;;;;;13.79;63.11;100555.28;2093095;28;46515;-65
2023/03/22 01:52:12;;;;;;;;;3.00;2.25;;;;;13.78;63.36;100547.34;2099773;28;46452;-65
2023/03/22 01:53:17;;;;;;;;;2.50;2.50;;;;;13.77;63.43;100538.47;2100979;28;47032;-65
2023/03/22 01:54:46;;;;;;;;;2.00;1.50;;;;;13.77;63.19;100543.81;2102869;28;46597;-64
2023/03/22 01:55:46;;;;;;;;;3.00;3.00;;;;;13.78;63.37;100550.00;2063809;28;46734;-65
2023/03/22 01:56:47;;;;;;;;;1.00;1.00;;;;;13.77;63.32;100542.94;2065490;28;46646;-65
2023/03/22 01:57:49;;;;;;;;;4.25;2.25;;;;;13.77;63.53;100530.47;2063542;28;46517;-65
2023/03/22 01:58:53;;;;;;;;;2.00;2.00;;;;;13.78;63.25;100542.88;2064690;28;46338;-66
2023/03/22 01:59:54;;;;;;;;;1.75;1.75;;;;;13.76;63.07;100539.41;2062738;28;46000;-66
2023/03/22 02:00:55;;;;;;;;;2.00;2.00;;;;;13.75;63.31;100532.34;2062317;28;46095;-64
2023/03/22 02:01:59;;;;;;;;;1.75;1.25;;;;;13.76;63.71;100533.19;2062741;28;46597;-64
2023/03/22 02:02:59;;;;;;;;;1.50;1.50;;;;;13.76;63.39;100530.53;2063113;28;46391;-65
2023/03/22 02:04:14;;;;;;;;;2.00;1.00;;;;;13.76;63.23;100535.88;2061158;28;46879;-65
2023/03/22 02:05:14;;;;;;;;;2.25;1.75;;;;;13.75;63.21;100529.66;2060765;28;46854;-65
2023/03/22 02:06:17;;;;;;;;;2.00;2.00;;;;;13.75;63.44;100528.78;2062920;28;46281;-65
2023/03/22 02:07:26;;;;;;;;;2.50;2.50;;;;;13.74;63.32;100521.72;2067646;28;46549;-64
2023/03/22 02:08:27;;;;;;;;;2.00;2.00;;;;;13.71;63.34;100528.03;2066610;28;45851;-65
2023/03/22 02:09:28;;;;;;;;;2.50;2.00;;;;;13.70;63.39;100518.28;2056356;28;46529;-64
2023/03/22 02:10:29;;;;;;;;;1.00;1.00;;;;;13.69;63.46;100519.22;2070823;28;46400;-65
2023/03/22 02:12:05;;;;;;;;;0.67;0.67;;;;;13.68;63.31;100519.28;2074628;28;46918;-64
2023/03/22 02:13:14;;;;;;;;;1.00;1.00;;;;;13.66;63.44;100508.66;2056540;28;46616;-65
2023/03/22 02:14:36;;;;;;;;;2.50;2.50;;;;;13.65;63.59;100501.59;2060457;28;46589;-67
2023/03/22 02:15:47;;;;;;;;;2.00;2.00;;;;;13.66;63.60;100505.13;2066341;28;46741;-65
2023/03/22 02:16:54;;;;;;;;;2.75;2.00;;;;;13.64;63.69;100504.31;2065784;28;46621;-65
2023/03/22 02:18:20;;;;;;;;;2.00;2.00;;;;;13.62;63.56;100498.19;2067129;28;46885;-64
2023/03/22 02:19:29;;;;;;;;;1.00;1.00;;;;;13.63;63.82;100499.94;2069186;28;46759;-65
2023/03/22 02:21:00;;;;;;;;;1.50;1.00;;;;;13.63;63.55;100503.47;2065614;28;46624;-65
2023/03/22 02:22:13;;;;;;;;;2.25;2.00;;;;;13.63;63.61;100490.13;2066281;28;46256;-64
2023/03/22 02:23:31;;;;;;;;;1.25;1.25;;;;;13.63;63.58;100494.59;2054117;28;46307;-65
2023/03/22 02:25:05;;;;;;;;;2.00;2.00;;;;;13.61;63.94;100497.31;2061621;28;46191;-65
2023/03/22 02:26:40;;;;;;;;;1.00;1.00;;;;;13.60;63.72;100490.25;2062890;28;46141;-66
2023/03/22 02:27:59;;;;;;;;;2.00;2.00;;;;;13.60;63.67;100487.59;2056673;28;46629;-65
2023/03/22 02:29:16;;;;;;;;;2.00;2.00;;;;;13.60;63.63;100481.38;2063846;28;45691;-65
2023/03/22 02:30:54;;;;;;;;;2.50;2.50;;;;;13.59;63.71;100482.28;2064499;28;46487;-64
2023/03/22 02:32:15;;;;;;;;;2.00;1.25;;;;;13.57;63.81;100486.81;2063949;28;46487;-66
2023/03/22 02:33:31;;;;;;;;;2.00;2.00;;;;;13.55;63.60;100487.72;2079175;27;47011;-65
2023/03/22 02:34:50;;;;;;;;;3.50;2.00;;;;;13.53;63.87;100484.25;2104924;27;46627;-65
2023/03/22 02:36:21;;;;;;;;;1.25;1.25;;;;;13.53;63.68;100486.06;2090303;28;46488;-65
2023/03/22 02:37:53;;;;;;;;;1.50;1.50;;;;;13.53;63.85;100486.06;2099878;27;46998;-65
2023/03/22 02:39:18;;;;;;;;;2.00;2.00;;;;;13.53;63.82;100491.38;2104577;27;46493;-65
2023/03/22 02:40:33;;;;;;;;;1.25;1.00;;;;;13.50;63.71;100481.72;2105032;27;46605;-65
2023/03/22 02:41:41;;;;;;;;;2.00;1.00;;;;;13.51;64.00;100482.59;2105486;27;46810;-64
2023/03/22 02:43:10;;;;;;;;;2.00;1.75;;;;;13.51;63.94;100490.59;2104900;27;46674;-64
2023/03/22 02:44:25;;;;;;;;;2.75;2.75;;;;;13.51;63.96;100495.91;2102125;27;46368;-65
2023/03/22 02:45:43;;;;;;;;;2.00;1.00;;;;;13.51;63.90;100493.25;2094783;28;46766;-65
2023/03/22 02:46:53;;;;;;;;;2.75;1.75;;;;;13.52;64.12;100495.00;2096100;28;46622;-65
2023/03/22 02:48:17;;;;;;;;;2.00;2.00;;;;;13.52;64.02;100498.53;2100451;27;46780;-65
2023/03/22 02:49:26;;;;;;;;;3.00;2.00;;;;;13.53;63.89;100494.06;2105257;27;46769;-64
2023/03/22 02:50:39;;;;;;;;;2.75;2.75;;;;;13.53;63.81;100505.59;2104312;27;46890;-65
2023/03/22 02:51:47;;;;;;;;;4.00;3.00;;;;;13.53;63.67;100507.38;2104058;27;46654;-65
2023/03/22 02:52:56;;;;;;;;;2.00;2.00;;;;;13.52;63.91;100497.66;2105567;27;46244;-65
2023/03/22 02:54:03;;;;;;;;;3.00;2.75;;;;;13.50;64.02;100500.38;2104662;28;46620;-65
2023/03/22 02:55:19;;;;;;;;;2.50;2.50;;;;;13.51;64.11;100498.59;2105813;27;47017;-65
2023/03/22 02:56:53;;;;;;;;;3.00;2.25;;;;;13.49;63.69;100490.66;2102862;27;46813;-65
2023/03/22 02:58:09;;;;;;;;;2.50;2.50;;;;;13.48;64.17;100491.56;2062230;28;46023;-65
2023/03/22 02:59:11;;;;;;;;;3.25;1.50;;;;;13.48;63.89;100498.72;2062572;28;45940;-65
2023/03/22 03:00:14;;;;;;;;;2.25;2.25;;;;;13.49;64.00;100493.31;2070804;28;46896;-64
2023/03/22 03:01:33;;;;;;;;;4.00;2.50;;;;;13.50;64.04;100494.19;2070563;28;46390;-63
2023/03/22 03:02:34;;;;;;;;;1.00;1.00;;;;;13.49;63.70;100492.44;2070286;28;45445;-65
2023/03/22 03:03:36;;;;;;;;;3.00;3.00;;;;;13.50;63.93;100500.38;2070887;28;46131;-64
2023/03/22 03:04:43;;;;;;;;;4.00;4.00;;;;;13.50;63.79;100495.06;2070003;28;46950;-64
2023/03/22 03:05:54;;;;;;;;;2.25;2.00;;;;;13.50;63.96;100494.19;2070672;28;46391;-65
2023/03/22 03:07:03;;;;;;;;;3.25;1.75;;;;;13.48;64.16;100502.25;2071169;28;45107;-64
2023/03/22 03:08:05;;;;;;;;;3.75;2.75;;;;;13.47;63.99;100496.97;2068641;28;46419;-64
2023/03/22 03:09:07;;;;;;;;;2.00;2.00;;;;;13.48;64.08;100506.69;2069514;28;46780;-65
2023/03/22 03:10:10;;;;;;;;;4.00;4.00;;;;;13.47;64.00;100505.84;2070390;28;46737;-65
2023/03/22 03:11:10;;;;;;;;;2.50;2.50;;;;;13.47;63.85;100504.97;2070443;28;46371;-64
2023/03/22 03:12:19;;;;;;;;;2.67;2.67;;;;;13.49;64.04;100513.78;2070510;28;46964;-65
2023/03/22 03:13:20;;;;;;;;;2.00;2.00;;;;;13.51;64.14;100509.25;2069563;28;46479;-65
2023/03/22 03:14:23;;;;;;;;;4.00;1.50;;;;;13.51;64.13;100506.59;2068274;28;46320;-66
2023/03/22 03:15:24;;;;;;;;;2.75;2.75;;;;;13.51;63.79;100504.78;2070611;28;46542;-65
2023/03/22 03:16:28;;;;;;;;;5.25;2.25;;;;;13.51;63.95;100506.59;2062212;28;47166;-65
2023/03/22 03:17:46;;;;;;;;;2.00;2.00;;;;;13.50;63.82;100511.03;2062307;28;46728;-66
2023/03/22 03:18:57;;;;;;;;;2.75;2.75;;;;;13.49;64.08;100511.97;2066013;28;45610;-63
2023/03/22 03:20:11;;;;;;;;;3.00;2.00;;;;;13.49;63.85;100509.31;2070642;28;45807;-66
2023/03/22 03:21:46;;;;;;;;;1.00;1.00;;;;;13.49;63.71;100513.78;2062332;28;46315;-64
2023/03/22 03:22:56;;;;;;;;;3.50;3.50;;;;;13.46;64.08;100503.19;2030535;29;46509;-65
2023/03/22 03:24:29;;;;;;;;;2.00;2.00;;;;;13.45;64.07;100498.78;2036089;28;47058;-64
2023/03/22 03:25:45;;;;;;;;;2.50;2.50;;;;;13.40;64.25;100496.31;2038101;28;46899;-65
2023/03/22 03:27:11;;;;;;;;;1.75;1.25;;;;;13.40;63.96;100498.09;2038288;28;45663;-65
2023/03/22 03:28:37;;;;;;;;;3.00;3.00;;;;;13.39;64.21;100486.56;2022332;29;46300;-64
2023/03/22 03:29:47;;;;;;;;;1.75;1.25;;;;;13.39;64.30;100486.56;2022508;29;46567;-64
2023/03/22 03:30:56;;;;;;;;;2.75;2.75;;;;;13.40;64.34;100493.66;2022407;29;47073;-64
2023/03/22 03:32:06;;;;;;;;;2.00;2.00;;;;;13.41;64.32;100508.72;2023257;29;46012;-64
2023/03/22 03:33:11;;;;;;;;;2.25;2.25;;;;;13.41;63.97;100507.84;2022216;29;46670;-65
2023/03/22 03:34:24;;;;;;;;;2.00;2.00;;;;;13.40;64.11;100495.44;2014825;29;45681;-64
2023/03/22 03:35:37;;;;;;;;;4.75;2.25;;;;;13.36;64.32;100502.69;2059608;28;46516;-64
2023/03/22 03:36:45;;;;;;;;;1.25;1.25;;;;;13.35;64.28;100490.28;2062792;28;46851;-65
2023/03/22 03:37:51;;;;;;;;;3.00;2.75;;;;;13.35;64.30;100494.75;2060978;28;46506;-64
2023/03/22 03:38:54;;;;;;;;;3.00;3.00;;;;;13.35;64.37;100490.28;2063329;28;46789;-65
2023/03/22 03:40:10;;;;;;;;;3.25;3.25;;;;;13.36;64.17;100491.16;2057040;28;46494;-64
2023/03/22 03:41:15;;;;;;;;;3.50;3.50;;;;;13.37;64.29;100487.56;2059069;28;46657;-65
2023/03/22 03:42:17;;;;;;;;;3.75;3.00;;;;;13.36;64.29;100486.69;2060967;28;46838;-66
2023/03/22 03:43:19;;;;;;;;;4.00;4.00;;;;;13.37;64.36;100490.22;2064705;28;46660;-65
2023/03/22 03:44:20;;;;;;;;;2.50;2.50;;;;;13.35;64.55;100500.09;2065460;28;46664;-64
2023/03/22 03:45:22;;;;;;;;;4.00;2.33;;;;;13.36;64.35;100485.81;2061173;28;46415;-64
2023/03/22 03:46:23;;;;;;;;;2.00;2.00;;;;;13.33;64.11;100497.44;2064790;28;46231;-64
2023/03/22 03:47:27;;;;;;;;;1.75;1.75;;;;;13.32;64.58;100492.19;2063491;28;46619;-64
2023/03/22 03:48:30;;;;;;;;;3.00;2.00;;;;;13.30;64.35;100489.56;2061296;28;45990;-66
2023/03/22 03:49:30;;;;;;;;;3.75;2.75;;;;;13.31;64.45;100487.78;2053799;28;46554;-67
2023/03/22 03:50:31;;;;;;;;;1.00;0.33;;;;;13.30;64.46;100483.38;2054044;28;46805;-64
2023/03/22 03:51:32;;;;;;;;;1.67;1.67;;;;;13.32;64.46;100493.03;2060119;28;46341;-64
2023/03/22 03:52:34;;;;;;;;;2.75;2.50;;;;;13.33;64.71;100476.13;2062113;28;46519;-65
2023/03/22 03:53:34;;;;;;;;;2.25;1.50;;;;;13.33;64.30;100485.91;2062260;28;46799;-64
2023/03/22 03:54:35;;;;;;;;;2.00;2.00;;;;;13.32;64.42;100484.19;2062083;28;46896;-65
2023/03/22 03:55:36;;;;;;;;;2.00;2.00;;;;;13.31;64.60;100480.66;2059013;28;46166;-64
2023/03/22 03:56:36;;;;;;;;;1.00;1.00;;;;;13.31;64.43;100487.78;2063266;28;47033;-64
2023/03/22 03:57:37;;;;;;;;;3.00;3.00;;;;;13.30;64.23;100483.38;2062985;28;46309;-65
2023/03/22 03:58:37;;;;;;;;;2.00;1.00;;;;;13.30;64.31;100494.91;2056507;28;46769;-65
2023/03/22 03:59:37;;;;;;;;;3.00;3.00;;;;;13.31;64.30;100493.09;2058843;28;46398;-64
2023/03/22 04:00:38;;;;;;;;;3.33;2.00;;;;;13.29;64.11;100492.28;2076267;28;47142;-64
2023/03/22 04:01:38;;;;;;;;;4.67;3.33;;;;;13.28;64.18;100488.75;2078140;28;46737;-65
2023/03/22 04:02:40;;;;;;;;;2.33;2.33;;;;;13.29;64.42;100489.63;2082903;28;46272;-65
2023/03/22 04:03:41;;;;;;;;;2.00;2.00;;;;;13.30;64.21;100480.72;2081133;28;46519;-64
2023/03/22 04:04:41;;;;;;;;;2.00;2.00;;;;;13.29;64.13;100478.97;2071295;28;46257;-65
2023/03/22 04:05:43;;;;;;;;;2.67;2.67;;;;;13.28;64.09;100478.09;2087658;28;46547;-64
2023/03/22 04:06:43;;;;;;;;;2.00;2.00;;;;;13.27;64.27;100480.81;2098597;27;46533;-64
2023/03/22 04:07:44;;;;;;;;;2.67;2.00;;;;;13.27;64.37;100480.81;2100446;27;46365;-65
2023/03/22 04:08:44;;;;;;;;;1.33;1.33;;;;;13.26;64.38;100487.94;2103198;27;46559;-65
2023/03/22 04:09:44;;;;;;;;;3.00;2.00;;;;;13.28;64.01;100494.09;2095817;28;46229;-65
2023/03/22 04:10:49;;;;;;;;;2.00;2.00;;;;;13.27;64.28;100486.16;2098893;28;45867;-64
2023/03/22 04:11:50;;;;;;;;;6.25;3.50;;;;;13.27;64.32;100494.16;2098365;28;45907;-65
2023/03/22 04:12:50;;;;;;;;;2.00;2.00;;;;;13.27;64.14;100500.34;2096869;28;46358;-64
2023/03/22 04:13:51;;;;;;;;;2.00;2.00;;;;;13.27;64.08;100496.81;2106754;27;46678;-66
2023/03/22 04:14:51;;;;;;;;;0.67;0.67;;;;;13.26;63.86;100506.59;2105926;27;46655;-65
2023/03/22 04:15:53;;;;;;;;;3.00;2.00;;;;;13.25;64.31;100494.22;2099908;27;45559;-64
2023/03/22 04:16:54;;;;;;;;;1.00;1.00;;;;;13.23;64.30;100488.94;2103692;27;46811;-65
2023/03/22 04:17:55;;;;;;;;;3.75;2.00;;;;;13.22;64.48;100500.53;2098136;27;46971;-65
2023/03/22 04:18:55;;;;;;;;;2.00;2.00;;;;;13.23;64.41;100499.59;2104123;27;46231;-65
2023/03/22 04:19:55;;;;;;;;;1.67;1.67;;;;;13.22;64.19;100491.66;2104371;27;45547;-65
2023/03/22 04:20:56;;;;;;;;;2.67;2.00;;;;;13.21;64.53;100500.56;2097983;28;46474;-64
2023/03/22 04:21:56;;;;;;;;;2.33;1.00;;;;;13.21;64.63;100498.78;2105327;27;46394;-64
2023/03/22 04:22:56;;;;;;;;;3.00;2.33;;;;;13.21;64.46;100493.47;2098828;28;46223;-64
2023/03/22 04:23:57;;;;;;;;;4.00;1.33;;;;;13.22;64.45;100500.53;2097588;28;46338;-64
2023/03/22 04:24:58;;;;;;;;;1.33;1.33;;;;;13.24;64.36;100496.00;2108393;27;46503;-65
2023/03/22 04:25:59;;;;;;;;;2.25;2.25;;;;;13.25;64.48;100486.22;2072154;28;45690;-64
2023/03/22 04:27:00;;;;;;;;;2.00;2.00;;;;;13.25;64.33;100486.22;2081513;28;46231;-64
2023/03/22 04:28:03;;;;;;;;;3.00;2.00;;;;;13.26;64.53;100485.28;2082697;28;46353;-67
2023/03/22 04:29:03;;;;;;;;;1.25;1.25;;;;;13.28;64.24;100487.91;2078732;28;46093;-65
2023/03/22 04:30:05;;;;;;;;;1.33;1.00;;;;;13.28;64.33;100479.91;2084562;28;46492;-65
2023/03/22 04:31:07;;;;;;;;;2.00;2.00;;;;;13.29;64.33;100484.31;2082647;28;46533;-64
2023/03/22 04:32:07;;;;;;;;;1.50;1.00;;;;;13.31;64.42;100474.44;2081725;28;46439;-64
2023/03/22 04:33:07;;;;;;;;;2.00;2.00;;;;;13.32;64.37;100476.19;2084649;28;46258;-66
2023/03/22 04:34:08;;;;;;;;;1.00;1.00;;;;;13.34;64.47;100477.91;2081224;28;46477;-64
2023/03/22 04:35:08;;;;;;;;;1.67;1.00;;;;;13.35;64.21;100465.44;2080093;28;47730;-64
2023/03/22 04:36:09;;;;;;;;;1.00;1.00;;;;;13.37;63.99;100466.25;2083745;28;46645;-63
2023/03/22 04:37:10;;;;;;;;;1.75;1.75;;;;;13.35;64.26;100466.31;2080083;28;46637;-64
2023/03/22 04:38:11;;;;;;;;;1.33;1.33;;;;;13.37;63.92;100463.56;2078639;28;45385;-64
2023/03/22 04:39:11;;;;;;;;;1.00;1.00;;;;;13.39;64.14;100461.72;2079856;28;46756;-66
2023/03/22 04:40:14;;;;;;;;;1.67;1.67;;;;;13.40;63.95;100464.31;2079329;28;46768;-66
2023/03/22 04:41:15;;;;;;;;;3.25;2.25;;;;;13.41;64.08;100462.53;2079833;28;46677;-66
2023/03/22 04:42:15;;;;;;;;;2.00;2.00;;;;;13.42;63.94;100466.94;2079729;28;46962;-65
2023/03/22 04:43:17;;;;;;;;;1.33;1.00;;;;;13.43;63.78;100471.34;2079767;28;46748;-64
2023/03/22 04:44:18;;;;;;;;;1.25;1.25;;;;;13.42;63.79;100473.13;2079660;28;46893;-66
2023/03/22 04:45:18;;;;;;;;;2.00;2.00;;;;;13.43;63.78;100476.66;2079426;28;46521;-66
2023/03/22 04:46:20;;;;;;;;;3.00;2.00;;;;;13.43;63.84;100472.19;2079403;28;46137;-65
2023/03/22 04:47:20;;;;;;;;;1.25;1.25;;;;;13.44;63.75;100462.41;2079374;28;46464;-64
2023/03/22 04:48:21;;;;;;;;;1.00;0.00;;;;;13.42;63.76;100470.47;2079450;28;46428;-65
2023/03/22 04:49:21;;;;;;;;;2.67;1.00;;;;;13.41;63.67;100467.84;2079341;28;46306;-65
2023/03/22 04:50:22;;;;;;;;;1.00;0.00;;;;;13.40;63.74;100466.13;2079757;28;46108;-66
2023/03/22 04:51:23;;;;;;;;;3.67;2.00;;;;;13.40;63.93;100471.44;2078369;28;47296;-66
2023/03/22 04:52:23;;;;;;;;;1.00;1.00;;;;;13.38;63.97;100466.19;2062903;28;46509;-65
2023/03/22 04:53:26;;;;;;;;;1.00;1.00;;;;;13.39;63.79;100465.25;2062934;28;46463;-64
2023/03/22 04:54:26;;;;;;;;;2.00;1.00;;;;;13.39;63.77;100451.06;2079423;28;46561;-64
2023/03/22 04:55:28;;;;;;;;;0.67;0.67;;;;;13.42;64.12;100466.94;2079942;28;46275;-64
2023/03/22 04:56:29;;;;;;;;;1.00;0.75;;;;;13.41;63.98;100459.88;2078167;28;47441;-64
2023/03/22 04:57:30;;;;;;;;;2.00;2.00;;;;;13.42;63.99;100465.13;2087580;27;46311;-64
2023/03/22 04:58:30;;;;;;;;;1.00;1.00;;;;;13.42;63.86;100464.25;2096543;28;46322;-65
2023/03/22 04:59:30;;;;;;;;;1.33;1.00;;;;;13.42;63.87;100464.25;2096402;28;45522;-65
2023/03/22 05:00:31;;;;;;;;;3.00;2.00;;;;;13.44;63.63;100470.41;2096837;28;45897;-64
2023/03/22 05:01:31;;;;;;;;;1.00;1.00;;;;;13.44;63.75;100467.72;2096382;28;47109;-64